This is the latest recevied weather packets stored in our database for station/object N4OOJ-13. If no packets are shown the sender has not sent any weather packets the latest 10 day(s).
| Time | Temp. | Humidity | Pressure | Rain* | Wind** | Luminosity | Snow |
|---|---|---|---|---|---|---|---|
| 1787866821 | 26.11° C | 97% | 1015.8 hPa | 0 mm | - | - | - |
| 1787866217 | 26.11° C | 95% | 1016.2 hPa | 0 mm | - | - | - |
| 1787865629 | 26.11° C | 94% | 1016.2 hPa | 0 mm | - | - | - |
| 1787865017 | 27.22° C | 92% | 1016 hPa | 0 mm | - | - | - |
| 1787864433 | 27.78° C | 90% | 1015.9 hPa | 0 mm | - | - | - |
| 1787863832 | 28.33° C | 87% | 1016.1 hPa | 0 mm | - | - | - |
| 1787863226 | 29.44° C | 80% | 1015.9 hPa | 0 mm | - | - | - |
| 1787862624 | 30° C | 79% | 1015.6 hPa | 0 mm | - | - | - |
| 1787862019 | 30.56° C | 78% | 1015.6 hPa | 0 mm | - | - | - |
| 1787861426 | 31.11° C | 77% | 1015.6 hPa | 0 mm | - | - | - |
| 1787860821 | 32.78° C | 71% | 1015.6 hPa | 0 mm | - | - | - |
| 1787860226 | 31.67° C | 75% | 1015.6 hPa | 0 mm | - | - | - |
| 1787859626 | 30.56° C | 76% | 1015.8 hPa | 0 mm | - | - | - |
| 1787859027 | 31.67° C | 69% | 1015.9 hPa | 0 mm | - | - | - |
| 1787858424 | 33.89° C | 62% | 1016.1 hPa | 0 mm | - | - | - |
| 1787857823 | 32.22° C | 72% | 1016.1 hPa | 0 mm | - | - | - |
| 1787857217 | 31.67° C | 71% | 1016.1 hPa | 0 mm | - | - | - |
| 1787856618 | 31.67° C | 73% | 1016 hPa | 0 mm | - | - | - |
| 1787856019 | 30.56° C | 79% | 1016.2 hPa | 0 mm | - | - | - |
| 1787855419 | 29.44° C | 88% | 1016.5 hPa | 0 mm | - | - | - |
| 1787854825 | 28.33° C | 90% | 1016.7 hPa | 0 mm | - | - | - |
| 1787854219 | 27.22° C | 91% | 1017 hPa | 0 mm | - | - | - |
| 1787853620 | 25.56° C | 97% | 1017.3 hPa | 0 mm | - | - | - |
| 1787853032 | 25.56° C | 95% | 1017.3 hPa | 0.25 mm | - | - | - |
| 1787852425 | 25° C | 96% | 1017.3 hPa | 1.27 mm | - | - | - |
* Rain latest hour (hover to see other rain measurements)
** Current wind speed in m/s (hover to see current wind gust speed)